Time;durP1;ratioP1;P1;durP2;ratioP2;P2;SDS_P1;SDS_P2;PMS_P1;PMS_P2;Temp;Humidity;BMP_temperature;BMP_pressure;BME280_temperature;BME280_humidity;BME280_pressure;Samples;Min_cycle;Max_cycle;Signal;HPM_P1;HPM_P2
2023/05/26 00:00:42;;;;;;;23.23;5.15;;;;;;;19.15;42.81;102190.63;5020610;27;96829;-71
2023/05/26 00:03:09;;;;;;;21.75;5.13;;;;;;;19.11;42.79;102190.78;5026510;27;97253;-71
2023/05/26 00:05:40;;;;;;;21.30;4.47;;;;;;;19.06;42.67;102184.78;5020743;27;101015;-71
2023/05/26 00:08:08;;;;;;;23.95;5.50;;;;;;;19.06;42.82;102186.59;5028078;27;99149;-71
2023/05/26 00:10:35;;;;;;;25.55;5.75;;;;;;;19.05;42.78;102182.16;5027062;27;96705;-71
2023/05/26 00:13:01;;;;;;;23.88;5.53;;;;;;;18.99;43.39;102187.81;5023006;27;96828;-71
2023/05/26 00:15:27;;;;;;;20.13;4.55;;;;;;;18.69;44.80;102185.66;5022105;27;99295;-71
2023/05/26 00:17:57;;;;;;;21.95;4.40;;;;;;;18.34;45.28;102186.38;5021418;27;98119;-71
2023/05/26 00:20:24;;;;;;;22.00;4.85;;;;;;;18.34;45.13;102191.72;5020074;27;97662;-70
2023/05/26 00:22:51;;;;;;;24.98;5.70;;;;;;;18.08;45.95;102176.81;5026888;27;96980;-70
2023/05/26 00:25:17;;;;;;;25.15;4.97;;;;;;;18.12;45.90;102188.25;5023551;27;98899;-71
2023/05/26 00:27:43;;;;;;;23.83;5.05;;;;;;;18.23;45.59;102181.50;5022467;27;100116;-71
2023/05/26 00:30:11;;;;;;;27.70;6.18;;;;;;;18.27;45.92;102185.78;5022795;27;99063;-70
2023/05/26 00:32:37;;;;;;;30.33;6.10;;;;;;;18.27;45.51;102190.25;5020737;27;97389;-70
2023/05/26 00:35:06;;;;;;;23.02;5.72;;;;;;;18.16;45.73;102182.72;5021400;27;101189;-70
2023/05/26 00:37:32;;;;;;;25.55;5.85;;;;;;;18.02;46.10;102184.25;5025981;27;101998;-70
2023/05/26 00:40:00;;;;;;;20.20;5.13;;;;;;;17.97;46.23;102188.94;5026418;27;97021;-71
2023/05/26 00:42:27;;;;;;;19.75;4.80;;;;;;;18.19;45.52;102184.38;5024690;27;96911;-70
2023/05/26 00:44:53;;;;;;;25.40;5.47;;;;;;;17.95;46.48;102183.66;5020409;27;99090;-70
2023/05/26 00:47:20;;;;;;;22.98;4.72;;;;;;;17.92;46.42;102181.09;5024516;27;99056;-70
2023/05/26 00:49:46;;;;;;;23.55;5.47;;;;;;;17.84;46.58;102188.59;5021715;27;97621;-70
2023/05/26 00:52:14;;;;;;;30.50;5.57;;;;;;;17.82;46.67;102190.47;5025343;27;97356;-70
2023/05/26 00:54:43;;;;;;;18.33;4.93;;;;;;;17.70;47.37;102194.53;5018166;27;98997;-70
2023/05/26 00:57:10;;;;;;;23.52;5.82;;;;;;;17.65;47.36;102201.88;5031255;27;99187;-70
2023/05/26 00:59:36;;;;;;;20.25;5.10;;;;;;;17.48;47.65;102196.31;5012224;27;98149;-70
2023/05/26 01:02:03;;;;;;;29.33;5.78;;;;;;;17.41;48.36;102202.84;5021793;27;96850;-70
2023/05/26 01:04:30;;;;;;;15.02;5.30;;;;;;;17.47;48.30;102195.44;5028788;27;99071;-70
2023/05/26 01:06:56;;;;;;;17.52;5.03;;;;;;;17.29;48.51;102198.00;5020420;27;102102;-71
2023/05/26 01:09:24;;;;;;;22.52;5.85;;;;;;;17.27;49.36;102191.84;5021694;27;96804;-71
2023/05/26 01:11:58;;;;;;;21.65;4.65;;;;;;;17.41;48.37;102192.16;5016766;27;97991;-72
2023/05/26 01:14:30;;;;;;;27.48;6.38;;;;;;;17.21;48.44;102189.44;5024823;27;98988;-70
2023/05/26 01:17:01;;;;;;;19.60;4.80;;;;;;;17.20;49.34;102188.56;5019469;27;98913;-71
2023/05/26 01:19:52;;;;;;;26.92;5.38;;;;;;;17.11;49.21;102189.81;5026276;27;96834;-70
2023/05/26 01:22:24;;;;;;;18.98;4.93;;;;;;;17.18;49.22;102189.56;5020469;27;99227;-70
2023/05/26 01:25:00;;;;;;;20.63;5.45;;;;;;;17.51;48.27;102186.38;5027341;27;98897;-71
2023/05/26 01:27:44;;;;;;;;;;;;;;;17.36;49.44;102181.66;5023266;27;101985;-71
2023/05/26 01:30:13;;;;;;;20.67;5.00;;;;;;;17.44;49.14;102187.56;5022921;27;97405;-71
2023/05/26 01:32:46;;;;;;;24.33;5.18;;;;;;;17.35;49.08;102184.41;5022189;27;97227;-71
2023/05/26 01:35:13;;;;;;;14.18;4.82;;;;;;;17.34;49.16;102188.00;5023779;27;99240;-71
2023/05/26 01:37:40;;;;;;;23.05;5.20;;;;;;;17.25;49.69;102196.41;5022091;27;97831;-70
2023/05/26 01:40:08;;;;;;;23.88;5.57;;;;;;;17.10;50.13;102190.75;5022611;27;96933;-70
2023/05/26 01:42:41;;;;;;;20.40;5.40;;;;;;;16.98;50.36;102196.56;5026803;27;96999;-71
2023/05/26 01:45:16;;;;;;;26.40;5.93;;;;;;;16.98;50.15;102201.03;5025256;27;101079;-70
2023/05/26 01:47:44;;;;;;;20.48;4.65;;;;;;;16.92;50.66;102194.13;5025358;27;98753;-71
2023/05/26 01:50:13;;;;;;;20.50;4.88;;;;;;;17.01;50.70;102199.09;5017112;27;98113;-71
2023/05/26 01:52:43;;;;;;;29.60;5.47;;;;;;;16.84;51.38;102190.03;5012347;27;96979;-71
2023/05/26 01:55:11;;;;;;;31.10;5.90;;;;;;;16.85;51.36;102197.97;5023713;27;101202;-71
2023/05/26 01:57:41;;;;;;;20.17;4.53;;;;;;;16.95;51.19;102199.34;5025739;27;99063;-74
2023/05/26 02:00:10;;;;;;;22.13;5.97;;;;;;;16.66;51.60;102192.47;5020494;27;97000;-75
2023/05/26 02:02:37;;;;;;;24.23;6.57;;;;;;;16.77;51.71;102196.53;5020272;27;97327;-74
2023/05/26 02:05:04;;;;;;;22.27;5.40;;;;;;;16.86;51.46;102190.84;5018541;27;99085;-75
2023/05/26 02:07:31;;;;;;;22.40;5.18;;;;;;;16.79;51.70;102195.53;5022181;27;99287;-75
2023/05/26 02:09:57;;;;;;;22.65;5.80;;;;;;;16.61;52.40;102194.41;5022298;27;97591;-76
2023/05/26 02:12:24;;;;;;;21.23;4.93;;;;;;;16.58;52.72;102193.66;5024750;27;96991;-75
2023/05/26 02:14:50;;;;;;;22.25;5.28;;;;;;;16.67;52.08;102194.19;5021667;27;98954;-76
2023/05/26 02:17:18;;;;;;;17.67;5.07;;;;;;;16.39;52.87;102198.81;5024136;27;100050;-76
2023/05/26 02:19:48;;;;;;;22.00;4.85;;;;;;;16.37;53.27;102199.78;5025171;27;96864;-76
2023/05/26 02:22:14;;;;;;;22.63;5.68;;;;;;;16.48;53.11;102198.44;5021684;27;97525;-76
2023/05/26 02:24:41;;;;;;;18.25;4.78;;;;;;;16.43;52.96;102200.41;5017286;27;98844;-76
2023/05/26 02:27:08;;;;;;;27.85;5.32;;;;;;;16.34;53.08;102206.94;5022498;27;98190;-76
2023/05/26 02:29:34;;;;;;;18.20;4.70;;;;;;;16.20;54.16;102208.41;5026708;27;97035;-76
2023/05/26 02:32:01;;;;;;;24.38;5.05;;;;;;;16.24;53.65;102213.56;5021687;27;96883;-76
2023/05/26 02:34:27;;;;;;;18.27;5.20;;;;;;;16.33;53.40;102207.91;5020858;27;99687;-75
2023/05/26 02:36:55;;;;;;;22.88;6.22;;;;;;;16.20;54.00;102211.94;5019734;27;101344;-75
2023/05/26 02:39:22;;;;;;;21.98;5.78;;;;;;;16.12;54.45;102214.00;5024205;27;96914;-75
2023/05/26 02:41:48;;;;;;;19.52;4.95;;;;;;;16.07;54.59;102220.44;5020318;27;96935;-75
2023/05/26 02:44:15;;;;;;;22.88;5.47;;;;;;;16.16;54.16;102212.97;5021314;27;99345;-75
2023/05/26 02:46:41;;;;;;;24.60;5.05;;;;;;;16.25;54.08;102219.78;5018913;27;98788;-76
2023/05/26 02:49:08;;;;;;;23.38;4.70;;;;;;;16.11;54.46;102217.59;5020570;27;97241;-74
2023/05/26 02:51:35;;;;;;;24.17;5.07;;;;;;;16.01;54.58;102220.66;5018533;27;97724;-76
2023/05/26 02:54:03;;;;;;;24.10;5.25;;;;;;;15.95;54.66;102224.38;5023688;27;98892;-75
2023/05/26 02:56:29;;;;;;;23.48;4.97;;;;;;;16.05;54.22;102217.81;5020977;27;101653;-75
2023/05/26 02:58:56;;;;;;;28.15;6.05;;;;;;;16.13;53.80;102221.09;5017617;27;97499;-74
2023/05/26 03:01:24;;;;;;;22.50;5.18;;;;;;;16.06;54.06;102224.88;5022290;27;97115;-75
2023/05/26 03:03:50;;;;;;;22.08;5.57;;;;;;;15.97;54.77;102221.66;5019873;27;98962;-75
2023/05/26 03:06:17;;;;;;;21.60;4.97;;;;;;;15.97;54.01;102219.84;5020946;27;98931;-75
2023/05/26 03:08:43;;;;;;;26.33;5.28;;;;;;;16.15;53.44;102224.53;5024819;27;96888;-74
2023/05/26 03:11:11;;;;;;;24.45;5.72;;;;;;;16.18;53.66;102224.44;5028801;27;97049;-73
2023/05/26 03:13:38;;;;;;;35.92;5.97;;;;;;;16.28;52.97;102225.84;5026297;27;98943;-73
2023/05/26 03:16:05;;;;;;;28.83;5.68;;;;;;;16.15;53.08;102232.53;5026231;27;98826;-73
2023/05/26 03:18:32;;;;;;;29.83;5.03;;;;;;;16.22;52.86;102231.41;5028850;27;96850;-73
2023/05/26 03:20:59;;;;;;;28.15;5.80;;;;;;;16.25;52.78;102225.97;5024556;27;98907;-74
2023/05/26 03:23:25;;;;;;;25.20;5.43;;;;;;;16.15;52.92;102235.22;5022014;27;97784;-73
2023/05/26 03:25:51;;;;;;;22.85;5.40;;;;;;;16.44;52.08;102227.97;5026303;27;97534;-73
2023/05/26 03:28:19;;;;;;;25.60;5.95;;;;;;;16.56;51.43;102232.84;5029111;27;97141;-74
2023/05/26 03:30:46;;;;;;;25.50;6.75;;;;;;;16.60;51.37;102231.88;5022158;27;98017;-74
2023/05/26 03:33:12;;;;;;;28.35;5.85;;;;;;;16.47;51.35;102236.75;5024503;27;98838;-73
2023/05/26 03:35:38;;;;;;;22.42;5.35;;;;;;;16.89;50.47;102236.97;5020551;27;99258;-74
2023/05/26 03:38:05;;;;;;;23.13;6.20;;;;;;;16.95;50.03;102242.06;5020703;27;97189;-74
2023/05/26 03:40:31;;;;;;;30.52;6.53;;;;;;;16.89;50.13;102246.78;5027963;27;96927;-73
2023/05/26 03:42:57;;;;;;;27.23;6.05;;;;;;;16.95;50.01;102250.06;5025342;27;98926;-74
2023/05/26 03:45:25;;;;;;;25.90;5.95;;;;;;;16.77;50.17;102244.56;5025104;27;99481;-74
2023/05/26 03:47:52;;;;;;;27.92;6.57;;;;;;;16.55;50.91;102240.00;5024044;27;97246;-75
2023/05/26 03:50:18;;;;;;;26.95;5.25;;;;;;;16.90;50.07;102249.38;5022772;27;96955;-74
2023/05/26 03:52:45;;;;;;;20.05;4.60;;;;;;;16.69;50.72;102247.53;5020304;27;98919;-76
2023/05/26 03:55:11;;;;;;;22.55;5.60;;;;;;;16.72;50.52;102248.28;5021007;27;98858;-76
2023/05/26 03:57:38;;;;;;;25.77;5.43;;;;;;;16.71;50.44;102251.00;5024724;27;97063;-76
2023/05/26 04:00:06;;;;;;;22.52;5.20;;;;;;;16.57;50.65;102247.94;5025863;27;96765;-76
2023/05/26 04:02:35;;;;;;;24.90;6.18;;;;;;;16.63;50.29;102250.41;5027209;27;98915;-77
2023/05/26 04:05:01;;;;;;;21.27;5.85;;;;;;;16.78;50.10;102254.31;5022207;27;99079;-76
2023/05/26 04:07:28;;;;;;;24.80;5.13;;;;;;;16.91;49.70;102259.16;5023067;27;97586;-76
2023/05/26 04:09:54;;;;;;;23.02;6.00;;;;;;;17.13;49.18;102264.53;5024048;27;96839;-75
2023/05/26 04:12:22;;;;;;;24.75;6.43;;;;;;;17.22;48.80;102263.28;5028041;27;101661;-76
2023/05/26 04:14:48;;;;;;;25.83;5.93;;;;;;;17.26;48.46;102273.81;5025537;27;101163;-76
2023/05/26 04:17:15;;;;;;;26.33;6.97;;;;;;;17.44;48.09;102272.22;5026008;27;97055;-75
2023/05/26 04:19:42;;;;;;;30.88;5.90;;;;;;;17.36;48.31;102267.16;5025988;27;98633;-76
2023/05/26 04:22:09;;;;;;;32.25;5.60;;;;;;;17.52;47.84;102280.81;5019271;27;99828;-75
2023/05/26 04:24:36;;;;;;;21.73;5.22;;;;;;;17.37;47.83;102279.59;5020658;27;100486;-76
2023/05/26 04:27:02;;;;;;;25.88;5.40;;;;;;;17.48;47.62;102281.84;5027170;27;96822;-74
2023/05/26 04:29:29;;;;;;;32.10;5.60;;;;;;;17.47;47.40;102280.09;5021174;27;96908;-73
2023/05/26 04:31:55;;;;;;;25.77;6.40;;;;;;;17.58;47.07;102277.88;5023010;27;99692;-74
2023/05/26 04:34:23;;;;;;;21.05;5.18;;;;;;;17.55;47.06;102286.00;5025161;27;100928;-73
2023/05/26 04:36:51;;;;;;;26.75;6.20;;;;;;;17.51;47.22;102281.72;5022739;27;97081;-73
2023/05/26 04:39:18;;;;;;;27.55;5.35;;;;;;;17.60;47.11;102284.00;5019394;27;98762;-74
2023/05/26 04:41:44;;;;;;;33.47;5.50;;;;;;;17.56;47.14;102289.56;5018397;27;97689;-74
2023/05/26 04:44:11;;;;;;;26.83;6.40;;;;;;;17.86;46.53;102289.19;5016848;27;99664;-74
2023/05/26 04:46:38;;;;;;;25.70;5.50;;;;;;;17.71;46.62;102287.19;5026878;27;97276;-74
2023/05/26 04:49:04;;;;;;;25.88;5.68;;;;;;;17.76;46.77;102290.53;5021646;27;96804;-74
2023/05/26 04:51:32;;;;;;;32.95;7.07;;;;;;;17.85;46.34;102283.94;5024938;27;100923;-73
2023/05/26 04:54:00;;;;;;;33.15;6.43;;;;;;;17.80;46.26;102289.44;5025377;27;99240;-74
2023/05/26 04:56:27;;;;;;;27.95;7.30;;;;;;;17.66;46.54;102282.91;5021998;27;96805;-74
2023/05/26 04:58:54;;;;;;;33.10;7.05;;;;;;;18.00;45.91;102285.06;5025337;27;97480;-74
2023/05/26 05:01:20;;;;;;;33.15;6.07;;;;;;;18.23;45.10;102276.97;5015385;27;98942;-77
2023/05/26 05:03:46;;;;;;;42.10;6.75;;;;;;;18.60;44.38;102282.44;5023728;27;98784;-75
2023/05/26 05:06:13;;;;;;;36.00;6.63;;;;;;;18.97;43.66;102276.28;5019911;27;98102;-75
2023/05/26 05:08:39;;;;;;;34.28;7.82;;;;;;;20.52;41.25;102268.59;5025449;27;97875;-76
2023/05/26 05:11:07;;;;;;;33.70;6.72;;;;;;;21.32;38.96;102278.56;5025557;27;99179;-76
2023/05/26 05:13:34;;;;;;;29.88;6.10;;;;;;;21.64;37.60;102279.41;5020308;27;100294;-75
2023/05/26 05:16:01;;;;;;;28.38;5.68;;;;;;;21.85;37.25;102281.75;5024973;27;97257;-75
2023/05/26 05:18:27;;;;;;;26.25;5.22;;;;;;;22.31;36.29;102279.03;5024273;27;96891;-77
2023/05/26 05:20:54;;;;;;;27.25;6.13;;;;;;;21.31;37.49;102290.28;5019972;27;99406;-71
2023/05/26 05:23:20;;;;;;;28.95;5.95;;;;;;;20.76;38.44;102287.88;5018500;27;99175;-72
2023/05/26 05:25:47;;;;;;;30.58;5.55;;;;;;;20.62;38.84;102277.00;5013507;27;97624;-72
2023/05/26 05:28:14;;;;;;;30.65;5.72;;;;;;;20.42;39.85;102283.44;5021514;27;96845;-72
2023/05/26 05:30:41;;;;;;;26.90;6.28;;;;;;;19.90;40.78;102283.41;5017134;27;98875;-71
2023/05/26 05:33:07;;;;;;;31.52;6.63;;;;;;;20.16;40.16;102276.69;5017636;27;101126;-72
2023/05/26 05:35:34;;;;;;;34.40;6.65;;;;;;;19.86;40.98;102281.81;5028047;27;97097;-71
2023/05/26 05:38:01;;;;;;;36.70;6.30;;;;;;;19.92;41.01;102286.00;5018308;27;96913;-72
2023/05/26 05:40:27;;;;;;;31.80;7.05;;;;;;;20.13;40.69;102294.78;5021022;27;99827;-73
2023/05/26 05:42:54;;;;;;;28.75;5.53;;;;;;;19.99;41.10;102295.50;5014767;27;101762;-71
2023/05/26 05:45:22;;;;;;;36.95;7.32;;;;;;;20.16;40.85;102295.50;5024996;27;96718;-70
2023/05/26 05:47:48;;;;;;;27.85;6.15;;;;;;;19.99;40.95;102298.16;5026559;27;97461;-70
2023/05/26 05:50:14;;;;;;;28.25;5.47;;;;;;;19.86;41.34;102295.22;5021587;27;100826;-70
2023/05/26 05:52:41;;;;;;;30.70;6.18;;;;;;;20.11;41.18;102302.91;5015516;27;99336;-71
2023/05/26 05:55:08;;;;;;;38.00;7.32;;;;;;;20.25;41.08;102299.53;5027350;27;96826;-71
2023/05/26 05:57:34;;;;;;;38.42;6.35;;;;;;;19.95;41.40;102310.00;5024842;27;96887;-71
2023/05/26 06:00:02;;;;;;;37.80;7.28;;;;;;;19.93;41.37;102302.97;5027262;27;100686;-71
2023/05/26 06:02:30;;;;;;;46.42;7.18;;;;;;;19.72;42.41;102312.94;5019456;27;98824;-71
2023/05/26 06:04:56;;;;;;;31.48;7.13;;;;;;;19.95;41.72;102310.00;5024393;27;97193;-71
2023/05/26 06:07:23;;;;;;;41.38;7.57;;;;;;;20.04;41.35;102308.66;5026140;27;96920;-71
2023/05/26 06:09:49;;;;;;;30.73;6.15;;;;;;;20.05;40.99;102310.41;5011754;27;98919;-70
2023/05/26 06:12:15;;;;;;;42.85;7.68;;;;;;;20.30;40.80;102306.38;5020563;27;100611;-71
2023/05/26 06:14:42;;;;;;;32.85;6.68;;;;;;;20.60;40.39;102311.16;5024194;27;97869;-70
2023/05/26 06:17:08;;;;;;;33.13;5.60;;;;;;;20.48;40.28;102309.97;5028042;27;97548;-72
2023/05/26 06:19:36;;;;;;;24.42;5.60;;;;;;;20.50;39.87;102312.56;5021779;27;100130;-71
2023/05/26 06:22:03;;;;;;;27.98;5.70;;;;;;;20.45;40.12;102311.94;5021966;27;98950;-70
2023/05/26 06:24:29;;;;;;;31.50;5.97;;;;;;;20.57;39.60;102314.84;5019388;27;97163;-72
2023/05/26 06:26:56;;;;;;;28.73;5.95;;;;;;;20.78;39.19;102312.00;5025763;27;97157;-72
2023/05/26 06:29:25;;;;;;;32.05;5.78;;;;;;;20.74;38.99;102318.50;5028100;27;99048;-71
2023/05/26 06:31:51;;;;;;;26.60;5.60;;;;;;;20.76;39.28;102311.19;5028211;27;98824;-71
2023/05/26 06:34:18;;;;;;;26.85;5.82;;;;;;;20.91;38.83;102316.63;5028181;27;97065;-72
2023/05/26 06:36:46;;;;;;;29.20;6.72;;;;;;;20.88;38.36;102308.72;5028148;27;96921;-72
2023/05/26 06:39:12;;;;;;;32.83;6.45;;;;;;;20.79;38.88;102309.22;5027495;27;99049;-72
2023/05/26 06:41:39;;;;;;;33.65;6.55;;;;;;;21.46;37.77;102308.25;5027695;27;99449;-72
2023/05/26 06:44:05;;;;;;;46.67;7.95;;;;;;;21.06;38.35;102305.06;5024077;27;96711;-72
2023/05/26 06:46:31;;;;;;;33.10;7.22;;;;;;;21.73;37.25;102311.16;5026274;27;97516;-72
2023/05/26 06:48:58;;;;;;;33.45;6.68;;;;;;;22.44;36.06;102317.72;5028042;27;98167;-71
2023/05/26 06:51:24;;;;;;;60.38;12.00;;;;;;;22.61;35.32;102312.16;5026089;27;99179;-72
2023/05/26 06:53:52;;;;;;;31.25;5.57;;;;;;;22.45;35.47;102321.28;5024939;27;96827;-71
2023/05/26 06:56:18;;;;;;;44.72;7.15;;;;;;;22.38;35.32;102318.09;5023685;27;97418;-74
2023/05/26 06:58:45;;;;;;;38.88;6.70;;;;;;;22.26;35.78;102317.00;5026351;27;97565;-71
2023/05/26 07:01:11;;;;;;;32.80;5.60;;;;;;;22.01;35.73;102313.16;5030579;27;99196;-71
2023/05/26 07:03:38;;;;;;;48.42;7.35;;;;;;;22.10;35.75;102318.00;5031224;27;96688;-72
2023/05/26 07:06:04;;;;;;;32.78;5.88;;;;;;;22.21;35.13;102318.22;5031496;27;96810;-72
2023/05/26 07:08:32;;;;;;;42.85;7.05;;;;;;;22.05;35.09;102317.41;5030987;27;97902;-71
2023/05/26 07:11:00;;;;;;;46.00;6.40;;;;;;;21.88;36.19;102324.59;5029014;27;98353;-72
2023/05/26 07:13:26;;;;;;;26.77;5.32;;;;;;;21.93;35.62;102320.75;5027101;27;97221;-72
2023/05/26 07:15:53;;;;;;;29.80;5.88;;;;;;;22.33;35.31;102325.56;5031716;27;96870;-71
2023/05/26 07:18:20;;;;;;;21.00;5.68;;;;;;;22.17;35.39;102320.25;5031749;27;99348;-71
2023/05/26 07:20:47;;;;;;;23.90;5.53;;;;;;;21.99;35.54;102328.53;5027279;27;99554;-72
2023/05/26 07:23:14;;;;;;;29.55;5.43;;;;;;;21.71;36.51;102319.34;5026476;27;96950;-72
2023/05/26 07:25:43;;;;;;;27.35;5.15;;;;;;;22.20;35.87;102320.03;5029103;27;96793;-71
2023/05/26 07:28:11;;;;;;;24.23;5.18;;;;;;;22.25;35.88;102317.09;5029653;27;98865;-71
2023/05/26 07:30:37;;;;;;;29.30;5.90;;;;;;;22.35;35.32;102318.28;5025150;27;98999;-72
2023/05/26 07:33:04;;;;;;;25.13;5.57;;;;;;;22.27;35.48;102324.13;5030199;27;97801;-72
2023/05/26 07:35:30;;;;;;;25.73;6.47;;;;;;;22.65;34.92;102321.78;5028941;27;96854;-71
2023/05/26 07:37:57;;;;;;;27.05;5.65;;;;;;;22.28;34.78;102324.97;5036580;27;98307;-71
2023/05/26 07:40:24;;;;;;;22.67;6.28;;;;;;;22.44;34.81;102328.50;5034416;27;99275;-71
2023/05/26 07:42:51;;;;;;;24.90;5.35;;;;;;;22.38;33.92;102328.88;5029450;27;97331;-72
2023/05/26 07:45:18;;;;;;;20.83;4.63;;;;;;;22.31;33.87;102337.41;5032092;27;96786;-71
2023/05/26 07:47:45;;;;;;;27.50;5.47;;;;;;;21.96;34.55;102331.41;5027315;28;98935;-71
2023/05/26 07:50:14;;;;;;;25.52;5.13;;;;;;;21.64;35.16;102328.72;5027796;27;100560;-71
2023/05/26 07:52:40;;;;;;;28.20;5.47;;;;;;;22.36;34.22;102333.47;5026395;27;97300;-72
2023/05/26 07:55:07;;;;;;;24.30;5.55;;;;;;;22.75;33.64;102337.44;5029042;27;97168;-71
2023/05/26 07:57:33;;;;;;;22.13;4.53;;;;;;;22.50;33.68;102338.91;5022084;27;99371;-72
2023/05/26 08:00:00;;;;;;;28.38;6.18;;;;;;;22.32;33.78;102345.38;5027837;27;98138;-72
2023/05/26 08:02:28;;;;;;;22.23;5.82;;;;;;;22.14;33.95;102343.78;5024246;27;97165;-72
2023/05/26 08:04:54;;;;;;;35.88;5.80;;;;;;;22.55;33.36;102339.50;5025418;27;96794;-72
2023/05/26 08:07:21;;;;;;;21.45;5.00;;;;;;;22.10;34.09;102348.47;5025648;27;99012;-72
2023/05/26 08:09:48;;;;;;;22.45;4.97;;;;;;;22.20;34.30;102338.91;5029145;27;97864;-72
2023/05/26 08:12:14;;;;;;;25.23;5.55;;;;;;;21.94;34.75;102349.41;5025133;27;97292;-71
2023/05/26 08:14:41;;;;;;;27.13;5.15;;;;;;;21.78;35.03;102341.38;5024934;27;97509;-71
2023/05/26 08:17:08;;;;;;;22.27;4.85;;;;;;;22.26;34.42;102346.59;5022215;27;98966;-70
2023/05/26 08:19:36;;;;;;;21.98;4.80;;;;;;;21.86;35.21;102337.25;5024641;27;100044;-73
2023/05/26 08:22:02;;;;;;;21.88;4.63;;;;;;;22.24;34.64;102345.84;5018493;27;97413;-71
2023/05/26 08:24:29;;;;;;;26.13;5.18;;;;;;;22.37;34.31;102335.22;5017603;27;97663;-71
2023/05/26 08:26:55;;;;;;;27.13;4.88;;;;;;;22.39;34.34;102341.34;5013180;27;99264;-71
2023/05/26 08:29:22;;;;;;;27.30;6.03;;;;;;;22.65;34.16;102323.63;5021014;27;99671;-71
2023/05/26 08:31:49;;;;;;;32.30;6.28;;;;;;;22.69;33.94;102327.00;5014531;27;97405;-70
2023/05/26 08:34:15;;;;;;;25.00;5.55;;;;;;;22.56;34.00;102325.06;5021489;27;96877;-72
2023/05/26 08:36:43;;;;;;;27.95;5.80;;;;;;;22.50;32.98;102328.13;5013713;27;99009;-72
2023/05/26 08:39:10;;;;;;;23.55;5.20;;;;;;;22.76;32.76;102320.31;5018767;27;100484;-72
2023/05/26 08:41:43;;;;;;;25.38;5.40;;;;;;;22.77;32.67;102319.34;5024504;27;96725;-72
2023/05/26 08:44:12;;;;;;;29.48;5.68;;;;;;;22.90;32.49;102314.94;5025745;27;96917;-72
2023/05/26 08:46:40;;;;;;;22.50;4.50;;;;;;;22.98;32.08;102318.84;5025657;27;97128;-72
2023/05/26 08:49:08;;;;;;;26.92;5.05;;;;;;;22.66;32.60;102326.22;5028389;27;99296;-72
2023/05/26 08:51:37;;;;;;;29.30;5.10;;;;;;;22.54;32.98;102326.97;5025519;27;96813;-71
2023/05/26 08:54:05;;;;;;;31.17;5.55;;;;;;;22.09;32.20;102327.03;5025728;27;97461;-72
2023/05/26 08:56:32;;;;;;;22.95;4.57;;;;;;;22.12;32.00;102327.69;5023983;28;97640;-72
2023/05/26 08:59:00;;;;;;;25.67;4.80;;;;;;;22.28;31.15;102330.38;5024551;27;98990;-72
2023/05/26 09:01:27;;;;;;;23.85;4.28;;;;;;;22.37;31.39;102337.03;5021112;27;97637;-72
2023/05/26 09:03:53;;;;;;;16.90;3.72;;;;;;;22.94;30.88;102327.25;5024106;27;97352;-72
2023/05/26 09:06:20;;;;;;;23.08;5.38;;;;;;;22.76;30.59;102331.09;5023052;27;99068;-71
2023/05/26 09:08:46;;;;;;;21.95;4.90;;;;;;;22.92;29.77;102324.63;5021985;27;98857;-71
2023/05/26 09:11:27;;;;;;;20.38;4.00;;;;;;;22.87;29.34;102325.88;5018745;27;96775;-72
2023/05/26 09:13:55;;;;;;;21.13;4.20;;;;;;;22.79;29.28;102320.97;5022051;27;98703;-72
2023/05/26 09:16:23;;;;;;;25.77;4.53;;;;;;;22.95;28.64;102320.91;5023400;27;99675;-72
2023/05/26 09:18:50;;;;;;;20.40;5.03;;;;;;;22.79;29.77;102315.59;5022668;27;99116;-72
2023/05/26 09:21:16;;;;;;;25.58;4.05;;;;;;;23.08;29.83;102313.78;5029064;27;97366;-72
2023/05/26 09:23:46;;;;;;;23.13;4.40;;;;;;;22.79;30.43;102312.88;5024318;27;96770;-71
2023/05/26 09:26:16;;;;;;;18.25;4.45;;;;;;;22.70;30.43;102317.97;5027330;27;99944;-71
2023/05/26 09:28:49;;;;;;;17.27;4.32;;;;;;;22.80;30.39;102320.00;5025724;27;99515;-72
2023/05/26 09:31:15;;;;;;;22.13;4.05;;;;;;;22.70;29.80;102308.06;5024448;27;97017;-73
2023/05/26 09:33:45;;;;;;;16.40;3.75;;;;;;;22.82;29.71;102317.22;5022836;27;96875;-73
2023/05/26 09:36:12;;;;;;;12.13;3.53;;;;;;;23.00;28.16;102318.78;5020645;27;98020;-75
2023/05/26 09:38:38;;;;;;;21.02;3.70;;;;;;;23.09;28.40;102320.03;5028413;27;97686;-73
2023/05/26 09:41:05;;;;;;;14.57;3.53;;;;;;;23.09;27.89;102326.28;5026436;27;97037;-72
2023/05/26 09:43:34;;;;;;;14.13;3.63;;;;;;;23.03;28.08;102324.00;5021894;27;97326;-72
2023/05/26 09:46:07;;;;;;;25.38;4.70;;;;;;;23.33;27.41;102315.75;5025143;27;102736;-72
2023/05/26 09:48:36;;;;;;;17.13;3.30;;;;;;;23.13;27.25;102310.78;5025030;27;98849;-72
2023/05/26 09:51:02;;;;;;;14.20;3.45;;;;;;;23.13;27.82;102316.16;5021837;27;99140;-73
2023/05/26 09:53:29;;;;;;;19.38;4.57;;;;;;;23.58;27.47;102307.84;5020951;27;97517;-73
2023/05/26 09:55:57;;;;;;;16.13;4.10;;;;;;;23.55;27.02;102315.28;5024647;27;98913;-76
2023/05/26 09:58:25;;;;;;;13.23;3.00;;;;;;;23.56;26.46;102308.91;5026635;27;99275;-75
2023/05/26 10:00:54;;;;;;;17.38;3.90;;;;;;;23.30;25.38;102313.28;5022910;27;98067;-75
2023/05/26 10:03:22;;;;;;;14.48;3.33;;;;;;;22.96;26.48;102303.75;5026250;27;97090;-75
2023/05/26 10:05:51;;;;;;;16.75;3.35;;;;;;;23.02;26.69;102315.03;5025261;27;101528;-75
2023/05/26 10:08:19;;;;;;;17.75;4.20;;;;;;;23.24;26.58;102314.50;5023462;27;102198;-76
2023/05/26 10:10:49;;;;;;;16.75;4.15;;;;;;;23.48;26.58;102312.13;5019598;27;97267;-75
2023/05/26 10:13:16;;;;;;;14.38;3.33;;;;;;;23.74;25.11;102307.69;5020165;27;97285;-76
2023/05/26 10:15:44;;;;;;;14.88;3.25;;;;;;;23.93;24.38;102307.34;5021588;27;98981;-76
2023/05/26 10:18:10;;;;;;;14.80;3.20;;;;;;;;;;5026455;27;97185;-76
2023/05/26 10:20:39;;;;;;;17.30;4.53;;;;;;;23.68;25.12;102302.72;5032652;27;96659;-76
2023/05/26 10:23:10;;;;;;;18.73;3.50;;;;;;;23.66;25.37;102305.50;5029237;27;96968;-75
2023/05/26 10:25:50;;;;;;;19.13;4.50;;;;;;;23.40;26.34;102298.22;5029690;27;99154;-76
2023/05/26 10:28:25;;;;;;;18.27;3.90;;;;;;;23.57;25.58;102303.41;5032536;27;97559;-76
2023/05/26 10:30:59;;;;;;;16.00;3.70;;;;;;;23.45;25.93;102302.34;5028225;27;96912;-74
2023/05/26 10:33:38;;;;;;;16.83;3.85;;;;;;;23.54;25.90;102310.84;5031011;27;96964;-75
2023/05/26 10:36:08;;;;;;;13.27;3.38;;;;;;;23.72;26.16;102297.00;5022972;27;99025;-75
2023/05/26 10:38:38;;;;;;;16.05;3.60;;;;;;;23.43;25.31;102306.97;5030955;27;100842;-75
2023/05/26 10:41:10;;;;;;;11.23;3.13;;;;;;;23.61;25.27;102309.47;5031586;27;97596;-78
2023/05/26 10:43:37;;;;;;;16.67;3.53;;;;;;;23.87;25.45;102308.63;5026515;27;97081;-76
2023/05/26 10:46:04;;;;;;;17.48;3.78;;;;;;;23.82;25.75;102310.78;5029490;27;99468;-76
2023/05/26 10:48:35;;;;;;;16.70;3.78;;;;;;;23.83;26.10;102305.25;5028657;27;102042;-75
2023/05/26 10:51:15;;;;;;;16.77;3.58;;;;;;;23.01;27.24;102296.25;5029921;27;96826;-76
2023/05/26 10:53:43;;;;;;;16.23;3.67;;;;;;;23.03;27.28;102292.50;5029110;27;97376;-72
2023/05/26 10:56:12;;;;;;;20.08;3.95;;;;;;;22.90;27.38;102288.84;5030277;27;98832;-72
2023/05/26 10:58:41;;;;;;;13.10;3.10;;;;;;;23.36;27.10;102297.56;5027519;27;98949;-71
2023/05/26 11:01:11;;;;;;;14.80;4.10;;;;;;;23.46;26.81;102297.81;5029233;27;96805;-73
2023/05/26 11:03:40;;;;;;;11.70;2.92;;;;;;;23.55;26.59;102299.97;5027048;27;96692;-71
2023/05/26 11:06:08;;;;;;;16.75;3.83;;;;;;;23.53;26.14;102290.22;5024087;27;97672;-70
2023/05/26 11:08:39;;;;;;;15.27;3.28;;;;;;;23.26;26.50;102292.84;5028238;27;99305;-72
2023/05/26 11:11:07;;;;;;;16.85;3.67;;;;;;;23.56;26.24;102301.69;5025902;27;96732;-71
2023/05/26 11:13:49;;;;;;;17.02;3.97;;;;;;;23.70;25.91;102293.53;5026444;27;97483;-72
2023/05/26 11:16:21;;;;;;;20.90;4.25;;;;;;;23.71;25.83;102295.25;5028652;27;98986;-71
2023/05/26 11:18:49;;;;;;;14.25;3.75;;;;;;;23.80;25.84;102293.81;5028811;27;99098;-71